sensor_id;sensor_type;location;lat;lon;timestamp;P1;durP1;ratioP1;P2;durP2;ratioP2
24559;SDS011;12727;49.934;8.656;2023-12-29T00:00:41;3.80;;;2.60;;
24559;SDS011;12727;49.934;8.656;2023-12-29T00:03:06;3.58;;;2.80;;
24559;SDS011;12727;49.934;8.656;2023-12-29T00:05:32;3.53;;;2.65;;
24559;SDS011;12727;49.934;8.656;2023-12-29T00:07:57;4.32;;;2.55;;
24559;SDS011;12727;49.934;8.656;2023-12-29T00:10:23;3.42;;;2.30;;
24559;SDS011;12727;49.934;8.656;2023-12-29T00:12:49;2.42;;;2.15;;
24559;SDS011;12727;49.934;8.656;2023-12-29T00:15:17;3.60;;;2.30;;
24559;SDS011;12727;49.934;8.656;2023-12-29T00:17:43;2.47;;;2.22;;
24559;SDS011;12727;49.934;8.656;2023-12-29T00:20:09;4.13;;;2.42;;
24559;SDS011;12727;49.934;8.656;2023-12-29T00:22:35;3.42;;;2.53;;
24559;SDS011;12727;49.934;8.656;2023-12-29T00:25:01;3.22;;;2.20;;
24559;SDS011;12727;49.934;8.656;2023-12-29T00:27:27;3.63;;;2.55;;
24559;SDS011;12727;49.934;8.656;2023-12-29T00:29:53;3.80;;;2.15;;
24559;SDS011;12727;49.934;8.656;2023-12-29T00:32:19;3.42;;;2.20;;
24559;SDS011;12727;49.934;8.656;2023-12-29T00:34:45;4.47;;;2.20;;
24559;SDS011;12727;49.934;8.656;2023-12-29T00:37:11;3.17;;;2.05;;
24559;SDS011;12727;49.934;8.656;2023-12-29T00:39:36;2.78;;;1.90;;
24559;SDS011;12727;49.934;8.656;2023-12-29T00:42:03;3.78;;;2.20;;
24559;SDS011;12727;49.934;8.656;2023-12-29T00:44:31;5.00;;;2.22;;
24559;SDS011;12727;49.934;8.656;2023-12-29T00:46:56;3.45;;;2.30;;
24559;SDS011;12727;49.934;8.656;2023-12-29T00:49:22;4.82;;;1.85;;
24559;SDS011;12727;49.934;8.656;2023-12-29T00:51:48;2.38;;;2.10;;
24559;SDS011;12727;49.934;8.656;2023-12-29T00:54:13;3.70;;;2.08;;
24559;SDS011;12727;49.934;8.656;2023-12-29T00:56:39;3.22;;;2.40;;
24559;SDS011;12727;49.934;8.656;2023-12-29T00:59:04;3.47;;;2.40;;
24559;SDS011;12727;49.934;8.656;2023-12-29T01:01:36;4.50;;;2.95;;
24559;SDS011;12727;49.934;8.656;2023-12-29T01:04:02;4.40;;;2.60;;
24559;SDS011;12727;49.934;8.656;2023-12-29T01:06:27;3.80;;;2.55;;
24559;SDS011;12727;49.934;8.656;2023-12-29T01:08:53;3.15;;;2.50;;
24559;SDS011;12727;49.934;8.656;2023-12-29T01:11:19;3.90;;;2.67;;
24559;SDS011;12727;49.934;8.656;2023-12-29T01:13:44;3.30;;;2.20;;
24559;SDS011;12727;49.934;8.656;2023-12-29T01:16:10;4.07;;;2.25;;
24559;SDS011;12727;49.934;8.656;2023-12-29T01:18:35;3.20;;;2.30;;
24559;SDS011;12727;49.934;8.656;2023-12-29T01:21:01;4.78;;;2.40;;
24559;SDS011;12727;49.934;8.656;2023-12-29T01:23:27;3.58;;;2.60;;
24559;SDS011;12727;49.934;8.656;2023-12-29T01:25:52;3.70;;;2.20;;
24559;SDS011;12727;49.934;8.656;2023-12-29T01:28:18;3.30;;;2.30;;
24559;SDS011;12727;49.934;8.656;2023-12-29T01:30:43;3.13;;;2.33;;
24559;SDS011;12727;49.934;8.656;2023-12-29T01:33:09;3.28;;;2.30;;
24559;SDS011;12727;49.934;8.656;2023-12-29T01:35:36;3.28;;;2.15;;
24559;SDS011;12727;49.934;8.656;2023-12-29T01:38:02;4.57;;;2.05;;
24559;SDS011;12727;49.934;8.656;2023-12-29T01:40:28;4.88;;;2.30;;
24559;SDS011;12727;49.934;8.656;2023-12-29T01:42:54;2.92;;;1.70;;
24559;SDS011;12727;49.934;8.656;2023-12-29T01:45:20;3.13;;;1.80;;
24559;SDS011;12727;49.934;8.656;2023-12-29T01:47:47;2.75;;;1.83;;
24559;SDS011;12727;49.934;8.656;2023-12-29T01:50:14;2.78;;;1.80;;
24559;SDS011;12727;49.934;8.656;2023-12-29T01:52:40;3.22;;;1.90;;
24559;SDS011;12727;49.934;8.656;2023-12-29T01:55:09;3.00;;;1.60;;
24559;SDS011;12727;49.934;8.656;2023-12-29T01:57:37;1.92;;;1.63;;
24559;SDS011;12727;49.934;8.656;2023-12-29T02:00:04;4.07;;;2.00;;
24559;SDS011;12727;49.934;8.656;2023-12-29T02:02:30;4.00;;;2.30;;
24559;SDS011;12727;49.934;8.656;2023-12-29T02:04:57;3.72;;;2.00;;
24559;SDS011;12727;49.934;8.656;2023-12-29T02:07:23;4.50;;;2.00;;
24559;SDS011;12727;49.934;8.656;2023-12-29T02:09:49;6.30;;;1.88;;
24559;SDS011;12727;49.934;8.656;2023-12-29T02:12:17;2.83;;;1.90;;
24559;SDS011;12727;49.934;8.656;2023-12-29T02:14:43;3.20;;;1.80;;
24559;SDS011;12727;49.934;8.656;2023-12-29T02:17:19;3.30;;;1.85;;
24559;SDS011;12727;49.934;8.656;2023-12-29T02:19:50;2.40;;;1.70;;
24559;SDS011;12727;49.934;8.656;2023-12-29T02:22:17;3.45;;;1.60;;
24559;SDS011;12727;49.934;8.656;2023-12-29T02:24:47;5.53;;;2.13;;
24559;SDS011;12727;49.934;8.656;2023-12-29T02:27:34;4.93;;;1.88;;
24559;SDS011;12727;49.934;8.656;2023-12-29T02:30:31;4.65;;;1.60;;
24559;SDS011;12727;49.934;8.656;2023-12-29T02:33:09;3.83;;;2.03;;
24559;SDS011;12727;49.934;8.656;2023-12-29T02:35:39;2.95;;;1.85;;
24559;SDS011;12727;49.934;8.656;2023-12-29T02:38:07;1.98;;;1.35;;
24559;SDS011;12727;49.934;8.656;2023-12-29T02:40:33;3.42;;;1.85;;
24559;SDS011;12727;49.934;8.656;2023-12-29T02:42:59;3.85;;;2.13;;
24559;SDS011;12727;49.934;8.656;2023-12-29T02:45:24;3.63;;;2.00;;
24559;SDS011;12727;49.934;8.656;2023-12-29T02:47:50;4.10;;;1.73;;
24559;SDS011;12727;49.934;8.656;2023-12-29T02:50:16;4.80;;;2.53;;
24559;SDS011;12727;49.934;8.656;2023-12-29T02:52:42;3.97;;;2.08;;
24559;SDS011;12727;49.934;8.656;2023-12-29T02:55:08;4.18;;;2.10;;
24559;SDS011;12727;49.934;8.656;2023-12-29T02:57:33;4.70;;;2.58;;
24559;SDS011;12727;49.934;8.656;2023-12-29T02:59:59;4.30;;;2.55;;
24559;SDS011;12727;49.934;8.656;2023-12-29T03:02:24;4.05;;;2.42;;
24559;SDS011;12727;49.934;8.656;2023-12-29T03:04:50;4.05;;;2.58;;
24559;SDS011;12727;49.934;8.656;2023-12-29T03:07:16;4.00;;;2.60;;
24559;SDS011;12727;49.934;8.656;2023-12-29T03:09:41;2.95;;;2.30;;
24559;SDS011;12727;49.934;8.656;2023-12-29T03:12:07;4.95;;;2.70;;
24559;SDS011;12727;49.934;8.656;2023-12-29T03:14:33;4.70;;;2.38;;
24559;SDS011;12727;49.934;8.656;2023-12-29T03:16:58;3.10;;;2.30;;
24559;SDS011;12727;49.934;8.656;2023-12-29T03:19:24;3.92;;;2.13;;
24559;SDS011;12727;49.934;8.656;2023-12-29T03:21:50;3.83;;;2.00;;
24559;SDS011;12727;49.934;8.656;2023-12-29T03:24:16;4.07;;;2.22;;
24559;SDS011;12727;49.934;8.656;2023-12-29T03:26:41;5.00;;;1.90;;
24559;SDS011;12727;49.934;8.656;2023-12-29T03:29:07;3.95;;;1.85;;
24559;SDS011;12727;49.934;8.656;2023-12-29T03:31:33;2.78;;;1.95;;
24559;SDS011;12727;49.934;8.656;2023-12-29T03:33:58;3.38;;;2.00;;
24559;SDS011;12727;49.934;8.656;2023-12-29T03:36:24;4.50;;;2.40;;
24559;SDS011;12727;49.934;8.656;2023-12-29T03:38:49;3.55;;;1.83;;
24559;SDS011;12727;49.934;8.656;2023-12-29T03:41:15;3.60;;;1.98;;
24559;SDS011;12727;49.934;8.656;2023-12-29T03:43:40;5.15;;;2.30;;
24559;SDS011;12727;49.934;8.656;2023-12-29T03:46:16;3.90;;;1.95;;
24559;SDS011;12727;49.934;8.656;2023-12-29T03:48:42;3.22;;;2.30;;
24559;SDS011;12727;49.934;8.656;2023-12-29T03:51:08;4.03;;;2.17;;
24559;SDS011;12727;49.934;8.656;2023-12-29T03:53:34;3.50;;;2.38;;
24559;SDS011;12727;49.934;8.656;2023-12-29T03:56:02;4.15;;;2.05;;
24559;SDS011;12727;49.934;8.656;2023-12-29T03:58:33;3.13;;;1.92;;
24559;SDS011;12727;49.934;8.656;2023-12-29T04:00:58;3.58;;;1.80;;
24559;SDS011;12727;49.934;8.656;2023-12-29T04:03:24;5.55;;;1.98;;
24559;SDS011;12727;49.934;8.656;2023-12-29T04:05:50;2.90;;;1.92;;
24559;SDS011;12727;49.934;8.656;2023-12-29T04:08:15;3.72;;;1.98;;
24559;SDS011;12727;49.934;8.656;2023-12-29T04:10:41;3.28;;;1.75;;
24559;SDS011;12727;49.934;8.656;2023-12-29T04:13:06;2.15;;;1.60;;
24559;SDS011;12727;49.934;8.656;2023-12-29T04:15:32;2.72;;;1.80;;
24559;SDS011;12727;49.934;8.656;2023-12-29T04:17:58;4.55;;;1.90;;
24559;SDS011;12727;49.934;8.656;2023-12-29T04:20:24;2.97;;;1.70;;
24559;SDS011;12727;49.934;8.656;2023-12-29T04:22:49;3.15;;;1.80;;
24559;SDS011;12727;49.934;8.656;2023-12-29T04:25:15;3.88;;;1.52;;
24559;SDS011;12727;49.934;8.656;2023-12-29T04:27:41;3.35;;;1.60;;
24559;SDS011;12727;49.934;8.656;2023-12-29T04:30:07;2.53;;;1.70;;
24559;SDS011;12727;49.934;8.656;2023-12-29T04:32:33;2.55;;;1.65;;
24559;SDS011;12727;49.934;8.656;2023-12-29T04:34:58;3.78;;;1.60;;
24559;SDS011;12727;49.934;8.656;2023-12-29T04:37:24;5.15;;;2.00;;
24559;SDS011;12727;49.934;8.656;2023-12-29T04:39:49;2.22;;;1.70;;
24559;SDS011;12727;49.934;8.656;2023-12-29T04:42:15;6.85;;;1.90;;
24559;SDS011;12727;49.934;8.656;2023-12-29T04:44:42;3.10;;;1.60;;
24559;SDS011;12727;49.934;8.656;2023-12-29T04:47:08;2.30;;;1.80;;
24559;SDS011;12727;49.934;8.656;2023-12-29T04:49:34;4.57;;;2.15;;
24559;SDS011;12727;49.934;8.656;2023-12-29T04:52:00;4.82;;;1.90;;
24559;SDS011;12727;49.934;8.656;2023-12-29T04:54:26;5.22;;;1.90;;
24559;SDS011;12727;49.934;8.656;2023-12-29T04:56:52;3.80;;;1.73;;
24559;SDS011;12727;49.934;8.656;2023-12-29T04:59:17;4.25;;;2.10;;
24559;SDS011;12727;49.934;8.656;2023-12-29T05:01:43;3.40;;;1.90;;
24559;SDS011;12727;49.934;8.656;2023-12-29T05:04:09;3.70;;;1.73;;
24559;SDS011;12727;49.934;8.656;2023-12-29T05:06:34;4.55;;;1.70;;
24559;SDS011;12727;49.934;8.656;2023-12-29T05:09:00;3.08;;;1.90;;
24559;SDS011;12727;49.934;8.656;2023-12-29T05:11:25;2.88;;;1.95;;
24559;SDS011;12727;49.934;8.656;2023-12-29T05:13:51;4.65;;;2.17;;
24559;SDS011;12727;49.934;8.656;2023-12-29T05:16:16;5.93;;;2.08;;
24559;SDS011;12727;49.934;8.656;2023-12-29T05:18:42;3.20;;;1.90;;
24559;SDS011;12727;49.934;8.656;2023-12-29T05:21:16;5.95;;;2.10;;
24559;SDS011;12727;49.934;8.656;2023-12-29T05:23:45;2.50;;;1.60;;
24559;SDS011;12727;49.934;8.656;2023-12-29T05:26:12;3.03;;;1.50;;
24559;SDS011;12727;49.934;8.656;2023-12-29T05:28:38;3.40;;;1.90;;
24559;SDS011;12727;49.934;8.656;2023-12-29T05:31:03;3.47;;;1.85;;
24559;SDS011;12727;49.934;8.656;2023-12-29T05:33:30;2.90;;;1.63;;
24559;SDS011;12727;49.934;8.656;2023-12-29T05:35:56;4.13;;;1.67;;
24559;SDS011;12727;49.934;8.656;2023-12-29T05:38:22;4.53;;;2.20;;
24559;SDS011;12727;49.934;8.656;2023-12-29T05:40:47;3.10;;;1.80;;
24559;SDS011;12727;49.934;8.656;2023-12-29T05:43:14;3.03;;;2.03;;
24559;SDS011;12727;49.934;8.656;2023-12-29T05:45:40;2.55;;;1.48;;
24559;SDS011;12727;49.934;8.656;2023-12-29T05:48:06;3.13;;;1.63;;
24559;SDS011;12727;49.934;8.656;2023-12-29T05:50:32;2.50;;;1.50;;
24559;SDS011;12727;49.934;8.656;2023-12-29T05:52:57;4.63;;;1.80;;
24559;SDS011;12727;49.934;8.656;2023-12-29T05:55:23;2.95;;;1.48;;
24559;SDS011;12727;49.934;8.656;2023-12-29T05:57:48;3.65;;;1.52;;
24559;SDS011;12727;49.934;8.656;2023-12-29T06:00:14;4.50;;;2.05;;
24559;SDS011;12727;49.934;8.656;2023-12-29T06:02:41;3.35;;;1.77;;
24559;SDS011;12727;49.934;8.656;2023-12-29T06:05:07;3.05;;;1.73;;
24559;SDS011;12727;49.934;8.656;2023-12-29T06:07:35;3.40;;;1.80;;
24559;SDS011;12727;49.934;8.656;2023-12-29T06:10:00;2.15;;;1.70;;
24559;SDS011;12727;49.934;8.656;2023-12-29T06:12:26;3.38;;;1.90;;
24559;SDS011;12727;49.934;8.656;2023-12-29T06:14:52;2.92;;;1.70;;
24559;SDS011;12727;49.934;8.656;2023-12-29T06:17:17;3.95;;;2.08;;
24559;SDS011;12727;49.934;8.656;2023-12-29T06:19:43;3.63;;;1.80;;
24559;SDS011;12727;49.934;8.656;2023-12-29T06:22:09;2.85;;;1.77;;
24559;SDS011;12727;49.934;8.656;2023-12-29T06:24:37;3.55;;;1.80;;
24559;SDS011;12727;49.934;8.656;2023-12-29T06:27:02;3.20;;;1.90;;
24559;SDS011;12727;49.934;8.656;2023-12-29T06:29:28;5.88;;;2.25;;
24559;SDS011;12727;49.934;8.656;2023-12-29T06:31:54;5.00;;;2.75;;
24559;SDS011;12727;49.934;8.656;2023-12-29T06:34:20;4.32;;;1.90;;
24559;SDS011;12727;49.934;8.656;2023-12-29T06:36:45;4.85;;;2.20;;
24559;SDS011;12727;49.934;8.656;2023-12-29T06:39:11;2.90;;;2.08;;
24559;SDS011;12727;49.934;8.656;2023-12-29T06:41:36;2.72;;;1.88;;
24559;SDS011;12727;49.934;8.656;2023-12-29T06:44:02;2.65;;;1.92;;
24559;SDS011;12727;49.934;8.656;2023-12-29T06:46:28;3.67;;;1.92;;
24559;SDS011;12727;49.934;8.656;2023-12-29T06:48:53;3.42;;;1.92;;
24559;SDS011;12727;49.934;8.656;2023-12-29T06:51:19;2.90;;;1.90;;
24559;SDS011;12727;49.934;8.656;2023-12-29T06:53:47;4.43;;;1.80;;
24559;SDS011;12727;49.934;8.656;2023-12-29T06:56:17;3.83;;;1.52;;
24559;SDS011;12727;49.934;8.656;2023-12-29T06:58:43;5.38;;;1.80;;
24559;SDS011;12727;49.934;8.656;2023-12-29T07:01:09;4.35;;;1.92;;
24559;SDS011;12727;49.934;8.656;2023-12-29T07:03:35;5.10;;;1.70;;
24559;SDS011;12727;49.934;8.656;2023-12-29T07:06:01;2.10;;;1.50;;
24559;SDS011;12727;49.934;8.656;2023-12-29T07:08:27;4.40;;;1.70;;
24559;SDS011;12727;49.934;8.656;2023-12-29T07:10:53;4.78;;;1.75;;
24559;SDS011;12727;49.934;8.656;2023-12-29T07:13:18;2.70;;;1.60;;
24559;SDS011;12727;49.934;8.656;2023-12-29T07:15:44;2.45;;;1.40;;
24559;SDS011;12727;49.934;8.656;2023-12-29T07:18:11;2.90;;;1.77;;
24559;SDS011;12727;49.934;8.656;2023-12-29T07:20:37;5.53;;;2.22;;
24559;SDS011;12727;49.934;8.656;2023-12-29T07:23:02;5.30;;;2.00;;
24559;SDS011;12727;49.934;8.656;2023-12-29T07:25:28;2.17;;;1.80;;
24559;SDS011;12727;49.934;8.656;2023-12-29T07:27:54;4.60;;;2.30;;
24559;SDS011;12727;49.934;8.656;2023-12-29T07:30:19;3.88;;;2.25;;
24559;SDS011;12727;49.934;8.656;2023-12-29T07:32:45;3.88;;;2.47;;
24559;SDS011;12727;49.934;8.656;2023-12-29T07:35:10;4.15;;;2.40;;
24559;SDS011;12727;49.934;8.656;2023-12-29T07:37:36;4.13;;;2.30;;
24559;SDS011;12727;49.934;8.656;2023-12-29T07:40:02;6.13;;;2.20;;
24559;SDS011;12727;49.934;8.656;2023-12-29T07:42:28;3.80;;;2.30;;
24559;SDS011;12727;49.934;8.656;2023-12-29T07:44:54;3.75;;;2.10;;
24559;SDS011;12727;49.934;8.656;2023-12-29T07:47:21;3.30;;;2.15;;
24559;SDS011;12727;49.934;8.656;2023-12-29T07:49:47;4.93;;;1.98;;
24559;SDS011;12727;49.934;8.656;2023-12-29T07:52:12;4.07;;;1.90;;
24559;SDS011;12727;49.934;8.656;2023-12-29T07:54:38;3.45;;;1.92;;
24559;SDS011;12727;49.934;8.656;2023-12-29T07:57:04;3.22;;;1.70;;
24559;SDS011;12727;49.934;8.656;2023-12-29T07:59:29;4.20;;;1.73;;
24559;SDS011;12727;49.934;8.656;2023-12-29T08:01:55;4.72;;;1.80;;
24559;SDS011;12727;49.934;8.656;2023-12-29T08:04:22;4.95;;;1.20;;
24559;SDS011;12727;49.934;8.656;2023-12-29T08:06:48;3.42;;;1.38;;
24559;SDS011;12727;49.934;8.656;2023-12-29T08:09:14;3.67;;;1.15;;
24559;SDS011;12727;49.934;8.656;2023-12-29T08:11:39;3.42;;;1.27;;
24559;SDS011;12727;49.934;8.656;2023-12-29T08:14:07;2.42;;;0.85;;
24559;SDS011;12727;49.934;8.656;2023-12-29T08:16:37;2.08;;;1.05;;
24559;SDS011;12727;49.934;8.656;2023-12-29T08:19:04;1.85;;;1.20;;
24559;SDS011;12727;49.934;8.656;2023-12-29T08:21:31;2.95;;;1.20;;
24559;SDS011;12727;49.934;8.656;2023-12-29T08:23:57;2.53;;;1.05;;
24559;SDS011;12727;49.934;8.656;2023-12-29T08:26:22;4.93;;;1.40;;
24559;SDS011;12727;49.934;8.656;2023-12-29T08:28:48;5.28;;;0.95;;
24559;SDS011;12727;49.934;8.656;2023-12-29T08:31:14;4.30;;;1.30;;
24559;SDS011;12727;49.934;8.656;2023-12-29T08:33:40;5.03;;;1.17;;
24559;SDS011;12727;49.934;8.656;2023-12-29T08:36:06;2.85;;;1.02;;
24559;SDS011;12727;49.934;8.656;2023-12-29T08:38:31;1.73;;;0.80;;
24559;SDS011;12727;49.934;8.656;2023-12-29T08:40:57;4.35;;;1.00;;
24559;SDS011;12727;49.934;8.656;2023-12-29T08:43:23;4.25;;;0.93;;
24559;SDS011;12727;49.934;8.656;2023-12-29T08:45:49;3.17;;;0.90;;
24559;SDS011;12727;49.934;8.656;2023-12-29T08:48:15;2.65;;;1.02;;
24559;SDS011;12727;49.934;8.656;2023-12-29T08:50:41;2.22;;;0.80;;
24559;SDS011;12727;49.934;8.656;2023-12-29T08:53:08;3.53;;;0.90;;
24559;SDS011;12727;49.934;8.656;2023-12-29T08:55:34;3.95;;;1.05;;
24559;SDS011;12727;49.934;8.656;2023-12-29T08:57:59;4.10;;;1.33;;
24559;SDS011;12727;49.934;8.656;2023-12-29T09:00:26;4.32;;;0.77;;
24559;SDS011;12727;49.934;8.656;2023-12-29T09:02:51;1.42;;;0.80;;
24559;SDS011;12727;49.934;8.656;2023-12-29T09:05:17;3.90;;;0.80;;
24559;SDS011;12727;49.934;8.656;2023-12-29T09:07:46;2.05;;;0.80;;
24559;SDS011;12727;49.934;8.656;2023-12-29T09:10:11;3.70;;;0.90;;
24559;SDS011;12727;49.934;8.656;2023-12-29T09:12:38;2.42;;;0.80;;
24559;SDS011;12727;49.934;8.656;2023-12-29T09:15:04;2.10;;;0.70;;
24559;SDS011;12727;49.934;8.656;2023-12-29T09:17:30;2.08;;;0.50;;
24559;SDS011;12727;49.934;8.656;2023-12-29T09:19:56;4.07;;;1.00;;
24559;SDS011;12727;49.934;8.656;2023-12-29T09:22:22;3.25;;;0.80;;
24559;SDS011;12727;49.934;8.656;2023-12-29T09:24:47;4.15;;;0.90;;
24559;SDS011;12727;49.934;8.656;2023-12-29T09:27:13;3.60;;;0.88;;
24559;SDS011;12727;49.934;8.656;2023-12-29T09:29:39;4.88;;;1.45;;
24559;SDS011;12727;49.934;8.656;2023-12-29T09:32:05;4.25;;;1.08;;
24559;SDS011;12727;49.934;8.656;2023-12-29T09:34:31;3.80;;;1.10;;
24559;SDS011;12727;49.934;8.656;2023-12-29T09:36:56;4.00;;;1.00;;
24559;SDS011;12727;49.934;8.656;2023-12-29T09:39:22;2.80;;;1.27;;
24559;SDS011;12727;49.934;8.656;2023-12-29T09:41:48;2.85;;;1.00;;
24559;SDS011;12727;49.934;8.656;2023-12-29T09:44:18;2.97;;;1.10;;
24559;SDS011;12727;49.934;8.656;2023-12-29T09:46:47;3.83;;;0.98;;
24559;SDS011;12727;49.934;8.656;2023-12-29T09:49:18;3.65;;;1.20;;
24559;SDS011;12727;49.934;8.656;2023-12-29T09:51:44;1.67;;;1.13;;
24559;SDS011;12727;49.934;8.656;2023-12-29T09:54:10;3.35;;;0.90;;
24559;SDS011;12727;49.934;8.656;2023-12-29T09:56:37;2.47;;;1.05;;
24559;SDS011;12727;49.934;8.656;2023-12-29T09:59:03;3.10;;;1.27;;
24559;SDS011;12727;49.934;8.656;2023-12-29T10:01:29;2.75;;;1.20;;
24559;SDS011;12727;49.934;8.656;2023-12-29T10:03:56;5.93;;;1.33;;
24559;SDS011;12727;49.934;8.656;2023-12-29T10:06:24;3.33;;;1.10;;
24559;SDS011;12727;49.934;8.656;2023-12-29T10:08:50;4.50;;;1.38;;
24559;SDS011;12727;49.934;8.656;2023-12-29T10:11:18;1.88;;;0.85;;
24559;SDS011;12727;49.934;8.656;2023-12-29T10:13:47;1.77;;;0.52;;
24559;SDS011;12727;49.934;8.656;2023-12-29T10:18:58;3.25;;;0.90;;
24559;SDS011;12727;49.934;8.656;2023-12-29T10:24:23;3.97;;;1.05;;
24559;SDS011;12727;49.934;8.656;2023-12-29T10:26:49;4.05;;;1.05;;
24559;SDS011;12727;49.934;8.656;2023-12-29T10:29:15;4.78;;;1.02;;
24559;SDS011;12727;49.934;8.656;2023-12-29T10:31:43;1.58;;;0.85;;
24559;SDS011;12727;49.934;8.656;2023-12-29T10:34:19;1.85;;;1.00;;
24559;SDS011;12727;49.934;8.656;2023-12-29T10:36:46;3.70;;;0.80;;
24559;SDS011;12727;49.934;8.656;2023-12-29T10:39:14;1.98;;;0.90;;
24559;SDS011;12727;49.934;8.656;2023-12-29T10:41:40;2.70;;;0.90;;
24559;SDS011;12727;49.934;8.656;2023-12-29T10:44:06;2.78;;;0.82;;
24559;SDS011;12727;49.934;8.656;2023-12-29T10:46:32;2.20;;;1.20;;
24559;SDS011;12727;49.934;8.656;2023-12-29T10:49:08;1.42;;;0.75;;
24559;SDS011;12727;49.934;8.656;2023-12-29T10:51:34;1.70;;;1.02;;
24559;SDS011;12727;49.934;8.656;2023-12-29T10:54:00;3.13;;;1.30;;
24559;SDS011;12727;49.934;8.656;2023-12-29T10:56:26;3.00;;;1.10;;
24559;SDS011;12727;49.934;8.656;2023-12-29T10:59:05;3.38;;;1.08;;
24559;SDS011;12727;49.934;8.656;2023-12-29T11:01:33;2.28;;;0.88;;
24559;SDS011;12727;49.934;8.656;2023-12-29T11:04:00;1.80;;;0.90;;
24559;SDS011;12727;49.934;8.656;2023-12-29T11:06:28;1.85;;;0.77;;
24559;SDS011;12727;49.934;8.656;2023-12-29T11:08:54;3.60;;;0.70;;
24559;SDS011;12727;49.934;8.656;2023-12-29T11:11:21;2.28;;;0.80;;
24559;SDS011;12727;49.934;8.656;2023-12-29T11:13:46;2.70;;;1.02;;
24559;SDS011;12727;49.934;8.656;2023-12-29T11:16:13;2.67;;;0.85;;
24559;SDS011;12727;49.934;8.656;2023-12-29T11:18:42;2.67;;;0.90;;
24559;SDS011;12727;49.934;8.656;2023-12-29T11:21:09;2.78;;;1.00;;
24559;SDS011;12727;49.934;8.656;2023-12-29T11:23:36;2.45;;;0.63;;
24559;SDS011;12727;49.934;8.656;2023-12-29T11:26:02;2.13;;;0.50;;
24559;SDS011;12727;49.934;8.656;2023-12-29T11:28:28;2.65;;;0.90;;
24559;SDS011;12727;49.934;8.656;2023-12-29T11:30:54;2.47;;;0.90;;
24559;SDS011;12727;49.934;8.656;2023-12-29T11:33:21;2.10;;;0.88;;
24559;SDS011;12727;49.934;8.656;2023-12-29T11:35:52;4.20;;;1.02;;
24559;SDS011;12727;49.934;8.656;2023-12-29T11:49:02;1.67;;;0.95;;
24559;SDS011;12727;49.934;8.656;2023-12-29T11:53:54;3.33;;;0.75;;
24559;SDS011;12727;49.934;8.656;2023-12-29T11:56:20;1.98;;;0.57;;
24559;SDS011;12727;49.934;8.656;2023-12-29T11:58:46;1.25;;;0.70;;
24559;SDS011;12727;49.934;8.656;2023-12-29T12:01:11;4.15;;;0.90;;
24559;SDS011;12727;49.934;8.656;2023-12-29T12:03:37;5.75;;;1.15;;
24559;SDS011;12727;49.934;8.656;2023-12-29T12:06:03;3.17;;;0.85;;
24559;SDS011;12727;49.934;8.656;2023-12-29T12:08:33;2.92;;;0.80;;
24559;SDS011;12727;49.934;8.656;2023-12-29T12:13:55;2.00;;;0.60;;
24559;SDS011;12727;49.934;8.656;2023-12-29T12:19:11;1.10;;;0.60;;
24559;SDS011;12727;49.934;8.656;2023-12-29T12:21:37;2.15;;;1.00;;
24559;SDS011;12727;49.934;8.656;2023-12-29T12:24:04;2.03;;;0.75;;
24559;SDS011;12727;49.934;8.656;2023-12-29T12:26:31;1.52;;;0.88;;
24559;SDS011;12727;49.934;8.656;2023-12-29T12:28:57;4.28;;;0.90;;
24559;SDS011;12727;49.934;8.656;2023-12-29T12:31:23;1.95;;;0.85;;
24559;SDS011;12727;49.934;8.656;2023-12-29T12:33:58;2.15;;;0.85;;
24559;SDS011;12727;49.934;8.656;2023-12-29T12:36:27;1.90;;;0.70;;
24559;SDS011;12727;49.934;8.656;2023-12-29T12:38:54;2.20;;;0.70;;
24559;SDS011;12727;49.934;8.656;2023-12-29T12:41:21;1.70;;;0.52;;
24559;SDS011;12727;49.934;8.656;2023-12-29T12:44:20;1.88;;;0.68;;
24559;SDS011;12727;49.934;8.656;2023-12-29T12:47:05;2.35;;;0.60;;
24559;SDS011;12727;49.934;8.656;2023-12-29T12:49:30;3.42;;;0.75;;
24559;SDS011;12727;49.934;8.656;2023-12-29T12:51:56;3.22;;;0.60;;
24559;SDS011;12727;49.934;8.656;2023-12-29T12:54:22;2.70;;;0.63;;
24559;SDS011;12727;49.934;8.656;2023-12-29T12:56:48;2.08;;;0.70;;
24559;SDS011;12727;49.934;8.656;2023-12-29T12:59:15;2.38;;;0.60;;
24559;SDS011;12727;49.934;8.656;2023-12-29T13:01:41;1.83;;;0.60;;
24559;SDS011;12727;49.934;8.656;2023-12-29T13:04:07;2.55;;;0.50;;
24559;SDS011;12727;49.934;8.656;2023-12-29T13:06:34;1.75;;;0.60;;
24559;SDS011;12727;49.934;8.656;2023-12-29T13:09:06;2.33;;;0.57;;
24559;SDS011;12727;49.934;8.656;2023-12-29T13:11:36;2.15;;;0.80;;
24559;SDS011;12727;49.934;8.656;2023-12-29T13:14:02;3.05;;;0.70;;
24559;SDS011;12727;49.934;8.656;2023-12-29T13:16:36;2.15;;;0.50;;
24559;SDS011;12727;49.934;8.656;2023-12-29T13:21:50;0.93;;;0.30;;
24559;SDS011;12727;49.934;8.656;2023-12-29T13:24:23;1.38;;;0.50;;
24559;SDS011;12727;49.934;8.656;2023-12-29T13:27:04;1.75;;;0.40;;
24559;SDS011;12727;49.934;8.656;2023-12-29T13:29:30;0.60;;;0.30;;
24559;SDS011;12727;49.934;8.656;2023-12-29T13:32:00;2.38;;;0.55;;
24559;SDS011;12727;49.934;8.656;2023-12-29T13:34:36;0.57;;;0.40;;
24559;SDS011;12727;49.934;8.656;2023-12-29T13:37:30;1.00;;;0.40;;
24559;SDS011;12727;49.934;8.656;2023-12-29T13:40:17;2.58;;;0.50;;
24559;SDS011;12727;49.934;8.656;2023-12-29T13:42:57;2.53;;;0.60;;
24559;SDS011;12727;49.934;8.656;2023-12-29T13:45:26;1.67;;;0.43;;
24559;SDS011;12727;49.934;8.656;2023-12-29T13:47:53;3.08;;;0.88;;
24559;SDS011;12727;49.934;8.656;2023-12-29T13:50:20;1.17;;;0.50;;
24559;SDS011;12727;49.934;8.656;2023-12-29T13:52:46;2.13;;;0.57;;
24559;SDS011;12727;49.934;8.656;2023-12-29T13:55:12;1.88;;;0.70;;
24559;SDS011;12727;49.934;8.656;2023-12-29T13:57:52;2.83;;;0.63;;
24559;SDS011;12727;49.934;8.656;2023-12-29T14:00:19;1.23;;;0.50;;
24559;SDS011;12727;49.934;8.656;2023-12-29T14:05:27;1.00;;;0.43;;
24559;SDS011;12727;49.934;8.656;2023-12-29T14:10:30;1.48;;;0.40;;
24559;SDS011;12727;49.934;8.656;2023-12-29T14:13:09;1.65;;;0.60;;
24559;SDS011;12727;49.934;8.656;2023-12-29T14:15:39;0.80;;;0.40;;
24559;SDS011;12727;49.934;8.656;2023-12-29T14:20:47;1.50;;;0.80;;
24559;SDS011;12727;49.934;8.656;2023-12-29T14:23:13;0.73;;;0.40;;
24559;SDS011;12727;49.934;8.656;2023-12-29T14:25:42;1.73;;;0.80;;
24559;SDS011;12727;49.934;8.656;2023-12-29T14:28:19;2.03;;;0.60;;
24559;SDS011;12727;49.934;8.656;2023-12-29T14:30:48;1.52;;;0.52;;
24559;SDS011;12727;49.934;8.656;2023-12-29T14:33:15;2.78;;;0.60;;
24559;SDS011;12727;49.934;8.656;2023-12-29T14:35:41;2.42;;;0.70;;
24559;SDS011;12727;49.934;8.656;2023-12-29T14:38:07;2.42;;;0.63;;
24559;SDS011;12727;49.934;8.656;2023-12-29T14:40:32;0.80;;;0.60;;
24559;SDS011;12727;49.934;8.656;2023-12-29T14:43:01;2.50;;;0.60;;
24559;SDS011;12727;49.934;8.656;2023-12-29T14:45:27;1.38;;;0.50;;
24559;SDS011;12727;49.934;8.656;2023-12-29T14:47:56;1.15;;;0.50;;
24559;SDS011;12727;49.934;8.656;2023-12-29T14:50:23;3.35;;;1.23;;
24559;SDS011;12727;49.934;8.656;2023-12-29T14:52:49;2.25;;;1.15;;
24559;SDS011;12727;49.934;8.656;2023-12-29T14:55:14;3.15;;;1.42;;
24559;SDS011;12727;49.934;8.656;2023-12-29T14:57:40;3.40;;;2.25;;
24559;SDS011;12727;49.934;8.656;2023-12-29T15:00:06;1.55;;;0.80;;
24559;SDS011;12727;49.934;8.656;2023-12-29T15:02:34;1.95;;;1.17;;
24559;SDS011;12727;49.934;8.656;2023-12-29T15:04:59;3.38;;;0.98;;
24559;SDS011;12727;49.934;8.656;2023-12-29T15:07:25;3.25;;;1.25;;
24559;SDS011;12727;49.934;8.656;2023-12-29T15:09:55;2.88;;;0.75;;
24559;SDS011;12727;49.934;8.656;2023-12-29T15:12:21;1.50;;;0.90;;
24559;SDS011;12727;49.934;8.656;2023-12-29T15:14:47;3.75;;;1.13;;
24559;SDS011;12727;49.934;8.656;2023-12-29T15:17:12;2.25;;;1.00;;
24559;SDS011;12727;49.934;8.656;2023-12-29T15:19:38;1.85;;;0.60;;
24559;SDS011;12727;49.934;8.656;2023-12-29T15:22:03;2.97;;;1.40;;